Weather at Sheboygan County Memorial Airport

Public forecast

Using degrees Fahrenheit for public forecast. Weather courtesy of forecast.io.

Current aviation weather report (METAR) for Sheboygan County Memorial Airport

Retrieved 2021/06/13 16:53 UTC (52 minutes ago):

KSBM 131653Z AUTO 32007KT 10SM CLR 29/11 A3000 RMK AO2 SLP154 T02940111

Aviation forecast (TAF) for Sheboygan County Memorial Airport

Retrieved 2021/06/13 12:22 UTC (5 hours ago):

TAF KSBM 131120Z 1312/1412 30005KT P6SM FEW250 FM140200 20005KT P6SM VCTS BKN050CB OVC070 FM140600 02008KT P6SM BKN060